Metar Cercanos

 

LEPA - Palma De Mallorc, Spain
Distance from station: ONO 38km
Actualización: 20/02/2018 08:30
Muy nuboso
Muy nuboso
 Viento del calm
Viento: Calma
Temperatura: 10°C
Rocío: 9°C
Humedad: 94%
Barómetro: 1012 hPa
Clouds: Muy nuboso
Visibility: 10 km
Cloud details: Few Clouds 610 m
Parcialmente nuboso 1067 m
Muy nuboso 1524 m
2018/02/20 07:30 LEPA 200730Z 00000KT 9999 FEW020 SCT035 BKN050 10/09 Q1012 NOSIG
LEMH - Mahon/Menorca Is, Spain
Distance from station: ENE 105km
Actualización: 20/02/2018 08:30
Lluvia débil, Few clouds
Lluvia débil, Few clouds
 Viento del ONO
Viento: ONO 7 km/h
Temperatura: 9°C
Sensación frio: 8°C
Rocío: 8°C
Humedad: 94%
Barómetro: 1012 hPa
Resumen: Lluvia débil
Clouds: Few Clouds
Visibility: 10 km
Cloud details: Few Clouds 1067 m
2018/02/20 07:30 LEMH 200730Z 30004KT 9999 -RA FEW035 09/08 Q1012
 
LEIB - Ibiza/Es Codola, Spain
Distance from station: OSO 165km
Actualización: 20/02/2018 08:30
Few Clouds
Few Clouds
 Viento del OSO
Viento: OSO 7 km/h
Temperatura: 12°C
Rocío: 10°C
Humedad: 88%
Barómetro: 1013 hPa
Clouds: Few Clouds
Visibility: 10 km
Cloud details: Few Clouds 610 m
2018/02/20 07:30 LEIB 200730Z 25004KT 230V290 9999 FEW020 12/10 Q1013 NOSIG
LEBL - Barcelona Airpor, Spain
Distance from station: NNO 225km
Actualización: 20/02/2018 08:30
Few Clouds
Few Clouds
 Viento del NO
Viento: NO 13 km/h, Racha: 31 km/h
Temperatura: 11°C
Rocío: 8°C
Humedad: 82%
Barómetro: 1012 hPa
Clouds: Few Clouds
Visibility: 9 km
Cloud details: Few Clouds 1067 m
2018/02/20 07:30 LEBL 200730Z 32007G17KT 9000 FEW035 11/08 Q1012 NOSIG
 
LEVC - Valencia (civ/Mi, Spain
Distance from station: NO 188km
Actualización: 20/02/2018 08:30
Few Clouds
Few Clouds
 Viento del O
Viento: O 11 km/h
Temperatura: 9°C
Sensación frio: 7°C
Rocío: 6°C
Humedad: 82%
Barómetro: 1013 hPa
Clouds: Few Clouds
Visibility: 10 km
Cloud details: Few Clouds 762 m
2018/02/20 07:30 LEVC 200730Z 28006KT 250V310 9999 FEW025 09/06 Q1013 NOSIG
LEGE - Gerona/Costa Bra, Spain
Distance from station: N 276km
Actualización: 20/02/2018 08:30
Few Clouds
Few Clouds
 Viento del calm
Viento: Calma
Temperatura: 7°C
Rocío: 7°C
Humedad: 100%
Barómetro: 1011 hPa
Clouds: Few Clouds
Visibility: 6 km
Cloud details: Few Clouds 2012 m
2018/02/20 07:30 LEGE 200730Z 00000KT 6000 FEW066 07/07 Q1011
 
LEAL - Alicante/El Alte, Spain
Distance from station: OSO 344km
Actualización: 20/02/2018 08:30
Despejado
Despejado
 Viento del ONO
Viento: ONO 17 km/h
Temperatura: 11°C
Rocío: 5°C
Humedad: 67%
Barómetro: 1014 hPa
Resumen: Despejado
Visibility: greater than 10 km
2018/02/20 07:30 LEAL 200730Z 30009KT CAVOK 11/05 Q1014 NOSIG
LEAM - Almeria Airport, Spain
Distance from station: SSO 56km
Actualización: 20/02/2018 08:30
Few Clouds
Few Clouds
 Viento del NNO
Viento: NNO 9 km/h
Temperatura: 9°C
Sensación frio: 7°C
Rocío: 6°C
Humedad: 82%
Barómetro: 1016 hPa
Clouds: Few Clouds
Visibility: 10 km
Cloud details: Few Clouds 610 m
2018/02/20 07:30 LEAM 200730Z 34005KT 9999 FEW020 09/06 Q1016
 
LEZG - Zaragoza (mil/Ci, Spain
Distance from station: NO 431km
Actualización: 20/02/2018 08:30
Few Clouds
Few Clouds
 Viento del ONO
Viento: ONO 43 km/h
Temperatura: 11°C
Rocío: 6°C
Humedad: 72%
Barómetro: 1016 hPa
Clouds: Few Clouds
Visibility: 10 km
Cloud details: Few Clouds 1067 m
2018/02/20 07:30 LEZG 200730Z 30023KT 9999 FEW035 11/06 Q1016
LEMD - Madrid/Barajas, Spain
Distance from station: ONO 234km
Actualización: 20/02/2018 08:30
Despejado
Despejado
 Viento del N
Viento: N 19 km/h
Temperatura: 9°C
Sensación frio: 6°C
Rocío: 3°C
Humedad: 66%
Barómetro: 1018 hPa
Resumen: Despejado
Visibility: greater than 10 km
2018/02/20 07:30 LEMD 200730Z 35010KT CAVOK 09/03 Q1018 NOSIG
 
LEGR - Granada Airport, Spain
Distance from station: OSO 62km
Actualización: 20/02/2018 08:30
Despejado
Despejado
 Viento del calm
Viento: Calma
Temperatura: 1°C
Rocío: 0°C
Humedad: 93%
Barómetro: 1018 hPa
Resumen: Despejado
Visibility: greater than 10 km
2018/02/20 07:30 LEGR 200730Z 00000KT CAVOK 01/M00 Q1018
LEMG - Malaga (civ/Mil), Spain
Distance from station: OSO 227km
Actualización: 20/02/2018 08:30
Few Clouds
Few Clouds
 Viento del ONO
Viento: ONO 7 km/h
Temperatura: 7°C
Sensación frio: 6°C
Rocío: 6°C
Humedad: 93%
Barómetro: 1017 hPa
Clouds: Few Clouds
Visibility: 10 km
Cloud details: Few Clouds 305 m
2018/02/20 07:30 LEMG 200730Z 30004KT 9999 FEW010 07/06 Q1017 NOSIG
 
LEZL - Sevilla (civ/Mil, Spain
Distance from station: S 318km
Actualización: 20/02/2018 08:30
Despejado
Despejado
 Viento del varies
Viento: varies 4 km/h
Temperatura: 6°C
Rocío: 4°C
Humedad: 87%
Barómetro: 1018 hPa
Resumen: Despejado
Visibility: greater than 10 km
2018/02/20 07:30 LEZL 200730Z VRB02KT CAVOK 06/04 Q1018 NOSIG
LEVT - Vitoria, Spain
Distance from station: NO 226km
Actualización: 20/02/2018 08:30
Muy nuboso
Muy nuboso
 Viento del NNO
Viento: NNO 13 km/h
Temperatura: 7°C
Sensación frio: 5°C
Rocío: 5°C
Humedad: 87%
Barómetro: 1020 hPa
Clouds: Muy nuboso
Visibility: 10 km
Cloud details: Few Clouds 457 m
Parcialmente nuboso 914 m
Muy nuboso 1524 m
2018/02/20 07:30 LEVT 200730Z 34007KT 300V010 9999 FEW015 SCT030 BKN050 07/05 Q1020
 
LEBB - Bilbao/Sondica, Spain
Distance from station: NNO 235km
Actualización: 20/02/2018 08:30
Lluvia débil, Muy nuboso
Lluvia débil, Muy nuboso
 Viento del NNO
Viento: NNO 20 km/h, Racha: 41 km/h
Temperatura: 11°C
Rocío: 9°C
Humedad: 88%
Barómetro: 1022 hPa
Resumen: Lluvia débil
Clouds: Muy nuboso
Visibility: 8 km
Cloud details: Few Clouds 610 m
Parcialmente nuboso 914 m
Muy nuboso 1219 m
2018/02/20 07:30 LEBB 200730Z 33011G22KT 290V350 8000 -RA FEW020 SCT030 BKN040 11/09 Q1022 NOSIG
LESO - San Sebastian/Fu, Spain
Distance from station: N 231km
Actualización: 20/02/2018 08:30
Lluvia débil, Muy nuboso
Lluvia débil, Muy nuboso
 Viento del NO
Viento: NO 15 km/h
Temperatura: 11°C
Rocío: 10°C
Humedad: 94%
Barómetro: 1020 hPa
Resumen: Lluvia débil
Clouds: Muy nuboso
Visibility: 8 km
Cloud details: Few Clouds 305 m
Muy nuboso 457 m
Muy nuboso 701 m
2018/02/20 07:30 LESO 200730Z 31008KT 260V010 8000 -RA FEW010 BKN015 BKN023 11/10 Q1020
 
LEVD - Valladolid(Mil/C, Spain
Distance from station: ONO 239km
Actualización: 20/02/2018 08:30
Despejado
Despejado
 Viento del NO
Viento: NO 6 km/h
Temperatura: 2°C
Rocío: 0°C
Humedad: 87%
Barómetro: 1021 hPa
Resumen: Despejado
Visibility: greater than 10 km
2018/02/20 07:30 LEVD 200730Z 31003KT CAVOK 02/00 Q1021
LESA - Salamanca (civ/M, Spain
Distance from station: ONO 349km
Actualización: 20/02/2018 08:30
Despejado
Despejado
 Viento del calm
Viento: Calma
Temperatura: -2°C
Rocío: -2°C
Humedad: 100%
Barómetro: 1021 hPa
Resumen: Despejado
Visibility: greater than 10 km
2018/02/20 07:30 LESA 200730Z 00000KT CAVOK M02/M02 Q1021
 
LEXJ - Santander/Paraya, Spain
Distance from station: NNO 247km
Actualización: 20/02/2018 08:30
Muy nuboso
Muy nuboso
 Viento del NNO
Viento: NNO 17 km/h
Temperatura: 12°C
Rocío: 10°C
Humedad: 88%
Barómetro: 1023 hPa
Clouds: Muy nuboso
Visibility: 10 km
Cloud details: Few Clouds 366 m
Parcialmente nuboso 884 m
Muy nuboso 1707 m
2018/02/20 07:30 LEXJ 200730Z 33009KT 290V010 9999 FEW012 SCT029 BKN056 12/10 Q1023
LEAS - Asturias/Aviles, Spain
Distance from station: NO 214km
Actualización: 20/02/2018 08:30
Muy nuboso
Muy nuboso
 Viento del OSO
Viento: OSO 9 km/h
Temperatura: 9°C
Sensación frio: 7°C
Rocío: 8°C
Humedad: 94%
Barómetro: 1024 hPa
Clouds: Muy nuboso
Visibility: 10 km
Cloud details: Few Clouds 762 m
Muy nuboso 1067 m
2018/02/20 07:30 LEAS 200730Z 25005KT 9999 FEW025 BKN035 09/08 Q1024 TEMPO 4000 -RA
 
LECO - La Coruna/Alvedr, Spain
Distance from station: ONO 222km
Actualización: 20/02/2018 08:30
Muy nuboso
Muy nuboso
 Viento del SSE
Viento: SSE 6 km/h
Temperatura: 8°C
Rocío: 7°C
Humedad: 93%
Barómetro: 1024 hPa
Clouds: Muy nuboso
Visibility: 10 km
Cloud details: Muy nuboso 1433 m
2018/02/20 07:30 LECO 200730Z 16003KT 010V170 9999 BKN047 08/07 Q1024 NOSIG
LEVX - Vigo/Peinador, Spain
Distance from station: O 214km
Actualización: 20/02/2018 08:30
Despejado
Despejado
 Viento del ENE
Viento: ENE 6 km/h
Temperatura: 7°C
Rocío: 4°C
Humedad: 81%
Barómetro: 1022 hPa
Resumen: Despejado
Visibility: greater than 10 km
2018/02/20 07:30 LEVX 200730Z 06003KT CAVOK 07/04 Q1022 NOSIG